Terminal Aerodrome Forecast
Issued by NWS Buffalo, NY

Home | Current Version | Previous Version | Text Only | Print | Product List | Glossary On
Versions: 1 2 3 4 5 6 7 8 9 10 11 12 13 14 15 16 17 18 19 20 21 22 23 24 25 26 27 28 29
000
FTUS41 KBUF 290900 AAA
TAFART
TAF AMD
KART 290904Z 2909/3006 VRB03KT P6SM SKC
     FM291400 23007KT P6SM SKC
     FM291700 22011KT P6SM SCT200
     FM292300 16006KT P6SM BKN200
     FM300300 18012KT P6SM BKN120
     FM300500 19013G21KT 2SM -SN OVC050=

USA.gov is the U.S. government's official web portal to all federal, state and local government web resources and services.